createdAt,value
2018-09-14T00:02:53.374Z,23.20
2018-09-14T00:08:02.495Z,23.10
2018-09-14T00:13:12.560Z,22.90
2018-09-14T00:18:17.928Z,22.70
2018-09-14T00:23:24.286Z,22.40
2018-09-14T00:28:48.946Z,22.30
2018-09-14T00:33:59.218Z,22.40
2018-09-14T00:39:04.970Z,22.40
2018-09-14T00:44:10.751Z,22.30
2018-09-14T00:49:16.961Z,22.30
2018-09-14T00:54:22.932Z,22.30
2018-09-14T00:59:28.188Z,22.50
2018-09-14T01:04:33.180Z,22.20
2018-09-14T01:09:38.190Z,22.30
2018-09-14T01:14:43.091Z,22.00
2018-09-14T01:19:48.060Z,21.90
2018-09-14T01:24:53.043Z,21.80
2018-09-14T01:29:57.952Z,21.70
2018-09-14T01:35:06.041Z,21.80
2018-09-14T01:40:11.075Z,22.20
2018-09-14T01:45:16.059Z,22.50
2018-09-14T01:50:21.056Z,22.40
2018-09-14T01:55:26.002Z,22.50
2018-09-14T02:00:30.935Z,22.10
2018-09-14T02:05:36.383Z,21.70
2018-09-14T02:10:41.592Z,21.60
2018-09-14T02:15:46.673Z,21.80
2018-09-14T02:20:51.825Z,21.90
2018-09-14T02:25:56.883Z,21.90
2018-09-14T02:31:02.100Z,21.80
2018-09-14T02:36:07.596Z,21.70
2018-09-14T02:41:12.747Z,21.50
2018-09-14T02:46:17.800Z,21.30
2018-09-14T02:51:23.073Z,21.40
2018-09-14T02:56:28.236Z,21.50
2018-09-14T03:01:33.432Z,21.60
2018-09-14T03:06:38.751Z,21.60
2018-09-14T03:11:44.127Z,21.50
2018-09-14T03:16:49.459Z,21.30
2018-09-14T03:21:54.648Z,21.40
2018-09-14T03:26:59.564Z,21.30
2018-09-14T03:32:04.843Z,21.20
2018-09-14T03:37:09.993Z,21.30
2018-09-14T03:42:15.104Z,21.30
2018-09-14T03:47:20.495Z,21.10
2018-09-14T03:52:25.776Z,21.10
2018-09-14T03:57:31.689Z,21.00
2018-09-14T04:02:36.713Z,21.00
2018-09-14T04:07:42.006Z,20.90
2018-09-14T04:12:47.168Z,20.90
2018-09-14T04:17:52.176Z,20.90
2018-09-14T04:22:57.122Z,20.90
2018-09-14T04:28:02.537Z,21.00
2018-09-14T04:33:07.609Z,21.00
2018-09-14T04:38:12.539Z,21.00
2018-09-14T04:43:17.651Z,20.90
2018-09-14T04:48:22.628Z,21.00
2018-09-14T04:53:27.806Z,21.00
2018-09-14T04:58:32.823Z,21.00
2018-09-14T05:03:37.788Z,20.90
2018-09-14T05:08:42.837Z,20.90
2018-09-14T05:13:47.900Z,21.00
2018-09-14T05:18:53.161Z,21.00
2018-09-14T05:23:58.266Z,20.90
2018-09-14T05:29:03.573Z,21.00
2018-09-14T05:34:08.899Z,21.10
2018-09-14T05:39:13.873Z,21.10
2018-09-14T05:44:18.949Z,21.30
2018-09-14T05:49:23.851Z,21.40
2018-09-14T05:54:29.121Z,21.60
2018-09-14T05:59:34.206Z,21.70
2018-09-14T06:04:40.231Z,21.60
2018-09-14T06:09:45.594Z,21.70
2018-09-14T06:14:50.692Z,22.10
2018-09-14T06:19:55.914Z,22.10
2018-09-14T06:25:00.843Z,22.20
2018-09-14T06:30:06.038Z,22.30
2018-09-14T06:35:11.089Z,22.50
2018-09-14T06:40:15.974Z,22.70
2018-09-14T06:45:21.263Z,23.10
2018-09-14T06:50:26.613Z,23.10
2018-09-14T06:55:32.062Z,23.10
2018-09-14T07:00:37.433Z,23.10
2018-09-14T07:05:43.114Z,23.30
2018-09-14T07:10:48.132Z,23.50
2018-09-14T07:15:53.391Z,24.10
2018-09-14T07:20:58.670Z,24.40
2018-09-14T07:26:03.922Z,24.50
2018-09-14T07:31:08.873Z,24.70
2018-09-14T07:36:14.958Z,24.70
2018-09-14T07:41:19.880Z,24.50
2018-09-14T07:46:25.311Z,24.80
2018-09-14T07:51:30.504Z,24.80
2018-09-14T07:56:35.716Z,25.00
2018-09-14T08:01:40.789Z,25.10
2018-09-14T08:06:45.845Z,25.40
2018-09-14T08:11:51.361Z,25.50
2018-09-14T08:16:57.257Z,25.30
2018-09-14T08:22:03.599Z,25.30
2018-09-14T08:27:08.624Z,25.60
2018-09-14T08:32:13.591Z,25.50
2018-09-14T08:37:18.589Z,25.30
2018-09-14T08:42:23.946Z,25.40
2018-09-14T08:47:28.847Z,25.40
2018-09-14T08:52:33.732Z,25.60
2018-09-14T08:57:38.865Z,25.60
2018-09-14T09:02:43.779Z,25.50
2018-09-14T09:07:48.981Z,25.60
2018-09-14T09:12:53.877Z,25.60
2018-09-14T09:17:59.216Z,25.70
2018-09-14T09:23:04.247Z,25.60
2018-09-14T09:28:09.324Z,25.90
2018-09-14T09:33:14.303Z,26.20
2018-09-14T09:38:19.234Z,26.20
2018-09-14T09:43:24.680Z,26.20
2018-09-14T09:48:29.771Z,26.50
2018-09-14T09:53:34.851Z,26.70
2018-09-14T09:58:39.944Z,26.70
2018-09-14T10:03:49.168Z,26.30
2018-09-14T10:08:55.702Z,26.30
2018-09-14T10:14:00.628Z,26.50
2018-09-14T10:19:06.454Z,26.80
2018-09-14T10:24:11.530Z,27.10
2018-09-14T10:29:16.959Z,27.80
2018-09-14T10:34:21.992Z,27.40
2018-09-14T10:39:27.142Z,27.70
2018-09-14T10:44:32.203Z,28.00
2018-09-14T10:49:38.372Z,28.50
2018-09-14T10:54:43.965Z,28.30
2018-09-14T10:59:49.310Z,28.00
2018-09-14T11:04:54.564Z,28.40
2018-09-14T11:10:01.982Z,28.30
2018-09-14T11:15:07.107Z,28.50
2018-09-14T11:20:12.393Z,28.90
2018-09-14T11:25:17.427Z,29.00
2018-09-14T11:30:22.368Z,29.30
2018-09-14T11:35:28.193Z,29.10
2018-09-14T11:40:33.451Z,29.60
2018-09-14T11:45:38.823Z,30.70
2018-09-14T11:50:43.910Z,31.10
2018-09-14T11:55:49.209Z,30.30
2018-09-14T12:00:54.569Z,30.20
2018-09-14T12:06:00.286Z,31.00
2018-09-14T12:11:05.644Z,30.90
2018-09-14T12:16:11.132Z,30.00
2018-09-14T12:21:16.862Z,30.30
2018-09-14T12:26:21.833Z,30.40
2018-09-14T12:31:27.258Z,30.60
2018-09-14T12:36:32.369Z,31.20
2018-09-14T12:41:38.141Z,31.60
2018-09-14T12:46:43.044Z,33.10
2018-09-14T12:51:48.275Z,32.70
2018-09-14T12:56:53.281Z,32.10
2018-09-14T13:01:58.450Z,31.90
2018-09-14T13:07:04.714Z,32.20
2018-09-14T13:12:09.988Z,32.80
2018-09-14T13:17:15.348Z,31.90
2018-09-14T13:22:20.338Z,32.00
2018-09-14T13:27:25.285Z,31.90
2018-09-14T13:32:30.279Z,32.90
2018-09-14T13:37:35.229Z,33.10
2018-09-14T13:42:40.136Z,33.60
2018-09-14T13:47:45.235Z,33.80
2018-09-14T13:52:50.227Z,33.90
2018-09-14T13:57:55.108Z,33.40
2018-09-14T14:03:01.221Z,33.40
2018-09-14T14:08:06.308Z,33.10
2018-09-14T14:13:11.446Z,33.70
2018-09-14T14:18:17.819Z,33.50
2018-09-14T14:23:22.934Z,33.90
2018-09-14T14:28:28.054Z,32.80
2018-09-14T14:33:33.237Z,32.20
2018-09-14T14:38:38.218Z,32.60
2018-09-14T14:43:43.121Z,33.00
2018-09-14T14:48:48.095Z,32.60
2018-09-14T14:53:53.180Z,32.80
2018-09-14T14:58:58.072Z,33.60
2018-09-14T15:04:03.103Z,33.70
2018-09-14T15:09:09.741Z,32.90
2018-09-14T15:14:16.350Z,32.30
2018-09-14T15:19:21.502Z,31.00
2018-09-14T15:24:26.572Z,31.00
2018-09-14T15:29:31.539Z,31.40
2018-09-14T15:34:36.423Z,29.80
2018-09-14T15:39:41.637Z,30.00
2018-09-14T15:44:46.631Z,29.60
2018-09-14T15:49:51.573Z,29.70
2018-09-14T15:54:56.516Z,30.30
2018-09-14T16:00:01.471Z,29.70
2018-09-14T16:05:06.656Z,29.00
2018-09-14T16:10:11.629Z,29.30
2018-09-14T16:15:16.782Z,28.90
2018-09-14T16:20:21.709Z,28.70
2018-09-14T16:25:26.707Z,28.70
2018-09-14T16:30:31.720Z,27.90
2018-09-14T16:35:37.247Z,27.80
2018-09-14T16:40:42.421Z,28.00
2018-09-14T16:45:47.497Z,28.10
2018-09-14T16:50:52.444Z,28.10
2018-09-14T16:55:57.439Z,27.80
2018-09-14T17:01:02.506Z,27.30
2018-09-14T17:06:07.614Z,27.00
2018-09-14T17:11:13.064Z,26.80
2018-09-14T17:16:18.780Z,26.60
2018-09-14T17:21:23.803Z,26.70
2018-09-14T17:26:29.219Z,26.40
2018-09-14T17:31:34.274Z,26.50
2018-09-14T17:36:39.207Z,26.40
2018-09-14T17:41:44.260Z,26.10
2018-09-14T17:46:49.209Z,26.10
2018-09-14T17:51:54.367Z,26.10
2018-09-14T17:56:59.682Z,26.20
2018-09-14T18:02:04.764Z,25.90
2018-09-14T18:07:10.624Z,26.10
2018-09-14T18:12:15.601Z,26.10
2018-09-14T18:17:20.579Z,26.00
2018-09-14T18:22:25.606Z,25.90
2018-09-14T18:27:30.863Z,25.90
2018-09-14T18:32:35.857Z,25.70
2018-09-14T18:37:40.744Z,25.50
2018-09-14T18:42:46.454Z,25.50
2018-09-14T18:47:51.534Z,25.40
2018-09-14T18:52:56.535Z,25.40
2018-09-14T18:58:01.689Z,25.20
2018-09-14T19:03:06.890Z,25.30
2018-09-14T19:08:11.850Z,25.20
2018-09-14T19:13:16.953Z,25.00
2018-09-14T19:18:21.951Z,24.70
2018-09-14T19:23:27.082Z,24.50
2018-09-14T19:28:31.939Z,24.40
2018-09-14T19:33:36.939Z,24.40
2018-09-14T19:38:42.167Z,24.30
2018-09-14T19:43:47.630Z,24.20
2018-09-14T19:48:52.573Z,24.10
2018-09-14T19:53:57.640Z,24.10
2018-09-14T19:59:02.696Z,24.10
2018-09-14T20:04:07.698Z,24.00
2018-09-14T20:09:14.882Z,23.80
2018-09-14T20:14:19.900Z,23.90
2018-09-14T20:19:24.904Z,23.80
2018-09-14T20:24:29.817Z,23.70
2018-09-14T20:29:35.364Z,23.60
2018-09-14T20:34:40.554Z,23.60
2018-09-14T20:39:45.614Z,23.70
2018-09-14T20:44:51.865Z,23.70
2018-09-14T20:49:56.839Z,23.60
2018-09-14T20:55:01.920Z,23.60
2018-09-14T21:00:07.164Z,23.50
2018-09-14T21:05:12.112Z,23.40
2018-09-14T21:10:17.053Z,23.20
2018-09-14T21:15:22.192Z,23.10
2018-09-14T21:20:27.094Z,23.30
2018-09-14T21:25:32.117Z,22.90
2018-09-14T21:30:37.103Z,23.00
2018-09-14T21:35:42.200Z,23.20
2018-09-14T21:40:47.280Z,23.20
2018-09-14T21:45:52.385Z,23.10
2018-09-14T21:50:57.416Z,23.30
2018-09-14T21:56:02.444Z,23.40
2018-09-14T22:01:12.796Z,23.20
2018-09-14T22:06:17.819Z,23.20
2018-09-14T22:11:22.865Z,23.10
2018-09-14T22:16:28.049Z,23.10
2018-09-14T22:21:33.052Z,22.90
2018-09-14T22:26:37.945Z,22.80
2018-09-14T22:31:43.098Z,22.70
2018-09-14T22:36:48.048Z,22.70
2018-09-14T22:41:52.964Z,22.80
2018-09-14T22:46:57.885Z,22.90
2018-09-14T22:52:02.861Z,22.90
2018-09-14T22:57:07.875Z,23.10
2018-09-14T23:02:12.842Z,23.20
2018-09-14T23:07:17.832Z,23.20
2018-09-14T23:12:22.943Z,23.40
2018-09-14T23:17:29.182Z,23.30
2018-09-14T23:22:40.574Z,23.30
2018-09-14T23:27:45.590Z,23.20
2018-09-14T23:32:50.608Z,23.10
2018-09-14T23:37:55.518Z,23.30
2018-09-14T23:43:00.432Z,23.30
2018-09-14T23:48:05.442Z,23.10
2018-09-14T23:53:10.490Z,23.00
2018-09-14T23:58:15.510Z,22.80
